sensor_id;sensor_type;location;lat;lon;timestamp;pressure;altitude;pressure_sealevel;temperature;humidity
1726;BME280;41776;48.260;8.928;2023-12-20T00:02:06;52272.09;;;-145.69;54.96
1726;BME280;41776;48.260;8.928;2023-12-20T00:04:33;52283.97;;;-145.69;54.90
1726;BME280;41776;48.260;8.928;2023-12-20T00:07:00;52252.28;;;-145.69;54.75
1726;BME280;41776;48.260;8.928;2023-12-20T00:09:28;52289.91;;;-145.69;54.38
1726;BME280;41776;48.260;8.928;2023-12-20T00:11:54;52282.00;;;-145.69;54.59
1726;BME280;41776;48.260;8.928;2023-12-20T00:14:21;52254.28;;;-145.69;54.85
1726;BME280;41776;48.260;8.928;2023-12-20T00:16:47;52220.59;;;-145.69;54.68
1726;BME280;41776;48.260;8.928;2023-12-20T00:19:14;52258.22;;;-145.69;55.34
1726;BME280;41776;48.260;8.928;2023-12-20T00:21:40;52280.00;;;-145.69;54.43
1726;BME280;41776;48.260;8.928;2023-12-20T00:24:07;52258.22;;;-145.69;53.60
1726;BME280;41776;48.260;8.928;2023-12-20T00:26:35;52266.16;;;-145.69;54.11
1726;BME280;41776;48.260;8.928;2023-12-20T00:29:02;52278.03;;;-145.69;54.62
1726;BME280;41776;48.260;8.928;2023-12-20T00:31:28;52289.91;;;-145.69;54.09
1726;BME280;41776;48.260;8.928;2023-12-20T00:33:54;52260.22;;;-145.69;54.25
1726;BME280;41776;48.260;8.928;2023-12-20T00:36:21;52262.19;;;-145.69;54.17
1726;BME280;41776;48.260;8.928;2023-12-20T00:38:48;52256.25;;;-145.69;54.23
1726;BME280;41776;48.260;8.928;2023-12-20T00:41:15;52268.13;;;-145.69;54.38
1726;BME280;41776;48.260;8.928;2023-12-20T00:43:43;52222.59;;;-145.69;54.06
1726;BME280;41776;48.260;8.928;2023-12-20T00:46:09;52246.34;;;-145.69;54.16
1726;BME280;41776;48.260;8.928;2023-12-20T00:48:36;52258.22;;;-145.69;54.49
1726;BME280;41776;48.260;8.928;2023-12-20T00:51:03;52228.53;;;-145.69;54.68
1726;BME280;41776;48.260;8.928;2023-12-20T00:53:30;52276.06;;;-145.69;55.74
1726;BME280;41776;48.260;8.928;2023-12-20T00:55:56;52254.28;;;-145.69;55.19
1726;BME280;41776;48.260;8.928;2023-12-20T00:58:23;52268.13;;;-145.69;54.45
1726;BME280;41776;48.260;8.928;2023-12-20T01:00:51;52250.31;;;-145.69;54.20
1726;BME280;41776;48.260;8.928;2023-12-20T01:03:18;52250.31;;;-145.69;54.82
1726;BME280;41776;48.260;8.928;2023-12-20T01:05:45;52280.00;;;-145.69;54.71
1726;BME280;41776;48.260;8.928;2023-12-20T01:08:11;52228.53;;;-145.69;54.71
1726;BME280;41776;48.260;8.928;2023-12-20T01:10:39;52244.38;;;-145.69;54.45
1726;BME280;41776;48.260;8.928;2023-12-20T01:13:05;52216.66;;;-145.69;54.52
1726;BME280;41776;48.260;8.928;2023-12-20T01:15:32;52274.06;;;-145.69;54.87
1726;BME280;41776;48.260;8.928;2023-12-20T01:18:00;52297.84;;;-145.69;54.74
1726;BME280;41776;48.260;8.928;2023-12-20T01:20:26;52258.22;;;-145.69;54.97
1726;BME280;41776;48.260;8.928;2023-12-20T01:22:53;52293.88;;;-145.69;55.12
1726;BME280;41776;48.260;8.928;2023-12-20T01:25:19;52264.16;;;-145.69;55.60
1726;BME280;41776;48.260;8.928;2023-12-20T01:27:46;52226.53;;;-145.69;55.83
1726;BME280;41776;48.260;8.928;2023-12-20T01:30:13;52250.31;;;-145.69;56.21
1726;BME280;41776;48.260;8.928;2023-12-20T01:32:39;52246.34;;;-145.69;56.77
1726;BME280;41776;48.260;8.928;2023-12-20T01:35:07;52282.00;;;-145.69;56.90
1726;BME280;41776;48.260;8.928;2023-12-20T01:37:37;52254.28;;;-145.69;57.31
1726;BME280;41776;48.260;8.928;2023-12-20T01:40:04;52240.41;;;-145.69;57.52
1726;BME280;41776;48.260;8.928;2023-12-20T01:42:31;52248.34;;;-145.69;57.14
1726;BME280;41776;48.260;8.928;2023-12-20T01:44:57;52264.16;;;-145.69;57.47
1726;BME280;41776;48.260;8.928;2023-12-20T01:47:24;52282.00;;;-145.69;57.30
1726;BME280;41776;48.260;8.928;2023-12-20T01:49:52;52244.38;;;-145.69;57.20
1726;BME280;41776;48.260;8.928;2023-12-20T01:52:20;52276.06;;;-145.69;57.57
1726;BME280;41776;48.260;8.928;2023-12-20T01:54:47;52254.28;;;-145.69;58.21
1726;BME280;41776;48.260;8.928;2023-12-20T01:57:14;52276.06;;;-145.69;58.21
1726;BME280;41776;48.260;8.928;2023-12-20T01:59:41;52228.53;;;-145.69;57.97
1726;BME280;41776;48.260;8.928;2023-12-20T02:02:07;52262.19;;;-145.69;58.27
1726;BME280;41776;48.260;8.928;2023-12-20T02:04:34;52254.28;;;-145.69;58.36
1726;BME280;41776;48.260;8.928;2023-12-20T02:07:02;52234.47;;;-145.69;57.91
1726;BME280;41776;48.260;8.928;2023-12-20T02:09:31;52236.44;;;-145.69;57.89
1726;BME280;41776;48.260;8.928;2023-12-20T02:11:58;52252.28;;;-145.69;58.36
1726;BME280;41776;48.260;8.928;2023-12-20T02:14:26;52258.22;;;-145.69;58.72
1726;BME280;41776;48.260;8.928;2023-12-20T02:16:52;52240.41;;;-145.69;56.50
1726;BME280;41776;48.260;8.928;2023-12-20T02:19:19;52262.19;;;-145.69;58.31
1726;BME280;41776;48.260;8.928;2023-12-20T02:21:48;52236.44;;;-145.69;59.17
1726;BME280;41776;48.260;8.928;2023-12-20T02:24:14;52254.28;;;-145.69;59.67
1726;BME280;41776;48.260;8.928;2023-12-20T02:26:43;52301.81;;;-145.69;59.98
1726;BME280;41776;48.260;8.928;2023-12-20T02:29:09;52270.13;;;-145.69;60.71
1726;BME280;41776;48.260;8.928;2023-12-20T02:31:36;52262.19;;;-145.69;61.72
1726;BME280;41776;48.260;8.928;2023-12-20T02:34:02;52280.00;;;-145.69;62.79
1726;BME280;41776;48.260;8.928;2023-12-20T02:36:29;52266.16;;;-145.69;62.67
1726;BME280;41776;48.260;8.928;2023-12-20T02:38:57;52283.97;;;-145.69;63.22
1726;BME280;41776;48.260;8.928;2023-12-20T02:41:23;52278.03;;;-145.69;63.68
1726;BME280;41776;48.260;8.928;2023-12-20T02:43:50;52248.34;;;-145.69;63.76
1726;BME280;41776;48.260;8.928;2023-12-20T02:46:17;52254.28;;;-145.69;64.45
1726;BME280;41776;48.260;8.928;2023-12-20T02:48:44;52264.16;;;-145.69;64.73
1726;BME280;41776;48.260;8.928;2023-12-20T02:51:12;52280.00;;;-145.69;65.41
1726;BME280;41776;48.260;8.928;2023-12-20T02:53:39;52285.97;;;-145.69;64.74
1726;BME280;41776;48.260;8.928;2023-12-20T02:56:07;52274.06;;;-145.69;64.70
1726;BME280;41776;48.260;8.928;2023-12-20T02:58:33;52291.91;;;-145.69;65.19
1726;BME280;41776;48.260;8.928;2023-12-20T03:01:00;52278.03;;;-145.69;64.80
1726;BME280;41776;48.260;8.928;2023-12-20T03:03:26;52301.81;;;-145.69;64.61
1726;BME280;41776;48.260;8.928;2023-12-20T03:05:53;52276.06;;;-145.69;63.05
1726;BME280;41776;48.260;8.928;2023-12-20T03:08:19;52276.06;;;-145.69;63.01
1726;BME280;41776;48.260;8.928;2023-12-20T03:10:46;52287.94;;;-145.69;62.80
1726;BME280;41776;48.260;8.928;2023-12-20T03:13:14;52266.16;;;-145.69;62.70
1726;BME280;41776;48.260;8.928;2023-12-20T03:15:41;52309.72;;;-145.69;62.75
1726;BME280;41776;48.260;8.928;2023-12-20T03:18:07;52274.06;;;-145.69;63.03
1726;BME280;41776;48.260;8.928;2023-12-20T03:20:34;52295.84;;;-145.69;62.86
1726;BME280;41776;48.260;8.928;2023-12-20T03:23:00;52282.00;;;-145.69;63.35
1726;BME280;41776;48.260;8.928;2023-12-20T03:25:27;52278.03;;;-145.69;63.26
1726;BME280;41776;48.260;8.928;2023-12-20T03:27:53;52282.00;;;-145.69;63.52
1726;BME280;41776;48.260;8.928;2023-12-20T03:30:21;52301.81;;;-145.69;63.51
1726;BME280;41776;48.260;8.928;2023-12-20T03:32:48;52282.00;;;-145.69;64.42
1726;BME280;41776;48.260;8.928;2023-12-20T03:35:15;52293.88;;;-145.69;64.96
1726;BME280;41776;48.260;8.928;2023-12-20T03:37:41;52321.59;;;-145.69;65.21
1726;BME280;41776;48.260;8.928;2023-12-20T03:40:09;52282.00;;;-145.69;65.92
1726;BME280;41776;48.260;8.928;2023-12-20T03:42:35;52282.00;;;-145.69;65.53
1726;BME280;41776;48.260;8.928;2023-12-20T03:45:02;52311.69;;;-145.69;65.71
1726;BME280;41776;48.260;8.928;2023-12-20T03:47:30;52321.59;;;-145.69;65.33
1726;BME280;41776;48.260;8.928;2023-12-20T03:49:57;52327.53;;;-145.69;65.56
1726;BME280;41776;48.260;8.928;2023-12-20T03:52:23;52266.16;;;-145.69;66.02
1726;BME280;41776;48.260;8.928;2023-12-20T03:54:50;52303.78;;;-145.69;65.44
1726;BME280;41776;48.260;8.928;2023-12-20T03:57:16;52289.91;;;-145.69;65.89
1726;BME280;41776;48.260;8.928;2023-12-20T03:59:43;52285.97;;;-145.69;65.61
1726;BME280;41776;48.260;8.928;2023-12-20T04:02:10;52297.84;;;-145.69;65.72
1726;BME280;41776;48.260;8.928;2023-12-20T04:04:38;52293.88;;;-145.69;65.33
1726;BME280;41776;48.260;8.928;2023-12-20T04:07:04;52289.91;;;-145.69;65.28
1726;BME280;41776;48.260;8.928;2023-12-20T04:09:31;52297.84;;;-145.69;65.26
1726;BME280;41776;48.260;8.928;2023-12-20T04:11:57;52287.94;;;-145.69;65.66
1726;BME280;41776;48.260;8.928;2023-12-20T04:14:24;52301.81;;;-145.69;65.21
1726;BME280;41776;48.260;8.928;2023-12-20T04:16:51;52287.94;;;-145.69;65.24
1726;BME280;41776;48.260;8.928;2023-12-20T04:19:17;52270.13;;;-145.69;65.32
1726;BME280;41776;48.260;8.928;2023-12-20T04:21:45;52283.97;;;-145.69;65.74
1726;BME280;41776;48.260;8.928;2023-12-20T04:24:12;52262.19;;;-145.69;65.44
1726;BME280;41776;48.260;8.928;2023-12-20T04:26:38;52293.88;;;-145.69;65.54
1726;BME280;41776;48.260;8.928;2023-12-20T04:29:05;52325.56;;;-145.69;65.61
1726;BME280;41776;48.260;8.928;2023-12-20T04:31:32;52317.66;;;-145.69;64.94
1726;BME280;41776;48.260;8.928;2023-12-20T04:33:59;52278.03;;;-145.69;65.71
1726;BME280;41776;48.260;8.928;2023-12-20T04:36:25;52309.72;;;-145.69;66.21
1726;BME280;41776;48.260;8.928;2023-12-20T04:38:56;52317.66;;;-145.69;65.95
1726;BME280;41776;48.260;8.928;2023-12-20T04:41:23;52321.59;;;-145.69;65.71
1726;BME280;41776;48.260;8.928;2023-12-20T04:43:49;52309.72;;;-145.69;65.43
1726;BME280;41776;48.260;8.928;2023-12-20T04:46:16;52254.28;;;-145.69;65.55
1726;BME280;41776;48.260;8.928;2023-12-20T04:48:43;52319.63;;;-145.69;65.43
1726;BME280;41776;48.260;8.928;2023-12-20T04:51:09;52301.81;;;-145.69;65.17
1726;BME280;41776;48.260;8.928;2023-12-20T04:53:36;52297.84;;;-145.69;65.26
1726;BME280;41776;48.260;8.928;2023-12-20T04:56:04;52301.81;;;-145.69;65.16
1726;BME280;41776;48.260;8.928;2023-12-20T04:58:31;52289.91;;;-145.69;64.96
1726;BME280;41776;48.260;8.928;2023-12-20T05:00:58;52305.75;;;-145.69;65.18
1726;BME280;41776;48.260;8.928;2023-12-20T05:03:24;52315.66;;;-145.69;64.78
1726;BME280;41776;48.260;8.928;2023-12-20T05:05:51;52297.84;;;-145.69;64.57
1726;BME280;41776;48.260;8.928;2023-12-20T05:08:17;52305.75;;;-145.69;64.80
1726;BME280;41776;48.260;8.928;2023-12-20T05:10:45;52283.97;;;-145.69;64.74
1726;BME280;41776;48.260;8.928;2023-12-20T05:13:12;52303.78;;;-145.69;64.61
1726;BME280;41776;48.260;8.928;2023-12-20T05:15:39;52276.06;;;-145.69;64.55
1726;BME280;41776;48.260;8.928;2023-12-20T05:18:06;52299.81;;;-145.69;64.47
1726;BME280;41776;48.260;8.928;2023-12-20T05:20:32;52293.88;;;-145.69;64.45
1726;BME280;41776;48.260;8.928;2023-12-20T05:22:59;52309.72;;;-145.69;63.98
1726;BME280;41776;48.260;8.928;2023-12-20T05:25:25;52301.81;;;-145.69;63.85
1726;BME280;41776;48.260;8.928;2023-12-20T05:27:52;52276.06;;;-145.69;63.94
1726;BME280;41776;48.260;8.928;2023-12-20T05:30:20;52317.66;;;-145.69;64.65
1726;BME280;41776;48.260;8.928;2023-12-20T05:32:47;52301.81;;;-145.69;64.76
1726;BME280;41776;48.260;8.928;2023-12-20T05:35:14;52311.69;;;-145.69;64.53
1726;BME280;41776;48.260;8.928;2023-12-20T05:37:41;52317.66;;;-145.69;64.59
1726;BME280;41776;48.260;8.928;2023-12-20T05:40:09;52291.91;;;-145.69;64.30
1726;BME280;41776;48.260;8.928;2023-12-20T05:42:36;52307.75;;;-145.69;63.96
1726;BME280;41776;48.260;8.928;2023-12-20T05:45:09;52299.81;;;-145.69;64.19
1726;BME280;41776;48.260;8.928;2023-12-20T05:47:37;52301.81;;;-145.69;64.40
1726;BME280;41776;48.260;8.928;2023-12-20T05:50:05;52331.50;;;-145.69;64.30
1726;BME280;41776;48.260;8.928;2023-12-20T05:52:31;52293.88;;;-145.69;63.99
1726;BME280;41776;48.260;8.928;2023-12-20T05:54:58;52321.59;;;-145.69;64.09
1726;BME280;41776;48.260;8.928;2023-12-20T05:57:26;52278.03;;;-145.69;64.03
1726;BME280;41776;48.260;8.928;2023-12-20T05:59:53;52293.88;;;-145.69;64.29
1726;BME280;41776;48.260;8.928;2023-12-20T06:02:19;52321.59;;;-145.69;64.07
1726;BME280;41776;48.260;8.928;2023-12-20T06:04:50;52297.84;;;-145.69;64.46
1726;BME280;41776;48.260;8.928;2023-12-20T06:07:17;52297.84;;;-145.69;64.00
1726;BME280;41776;48.260;8.928;2023-12-20T06:09:43;52301.81;;;-145.69;64.18
1726;BME280;41776;48.260;8.928;2023-12-20T06:12:10;52311.69;;;-145.69;63.78
1726;BME280;41776;48.260;8.928;2023-12-20T06:14:37;52266.16;;;-145.69;63.68
1726;BME280;41776;48.260;8.928;2023-12-20T06:17:03;52283.97;;;-145.69;63.84
1726;BME280;41776;48.260;8.928;2023-12-20T06:19:30;52303.78;;;-145.69;63.59
1726;BME280;41776;48.260;8.928;2023-12-20T06:21:58;52305.75;;;-145.69;63.83
1726;BME280;41776;48.260;8.928;2023-12-20T06:24:24;52309.72;;;-145.69;64.02
1726;BME280;41776;48.260;8.928;2023-12-20T06:26:53;52317.66;;;-145.69;64.10
1726;BME280;41776;48.260;8.928;2023-12-20T06:29:19;52285.97;;;-145.69;63.64
1726;BME280;41776;48.260;8.928;2023-12-20T06:31:48;52317.66;;;-145.69;63.89
1726;BME280;41776;48.260;8.928;2023-12-20T06:34:16;52293.88;;;-145.69;64.19
1726;BME280;41776;48.260;8.928;2023-12-20T06:36:43;52274.06;;;-145.69;64.09
1726;BME280;41776;48.260;8.928;2023-12-20T06:39:11;52309.72;;;-145.69;64.14
1726;BME280;41776;48.260;8.928;2023-12-20T06:41:39;52313.69;;;-145.69;63.75
1726;BME280;41776;48.260;8.928;2023-12-20T06:44:11;52272.09;;;-145.69;63.81
1726;BME280;41776;48.260;8.928;2023-12-20T06:46:37;52323.59;;;-145.69;64.13
1726;BME280;41776;48.260;8.928;2023-12-20T06:49:07;52309.72;;;-145.69;63.94
1726;BME280;41776;48.260;8.928;2023-12-20T06:51:33;52297.84;;;-145.69;64.14
1726;BME280;41776;48.260;8.928;2023-12-20T06:54:00;52285.97;;;-145.69;64.11
1726;BME280;41776;48.260;8.928;2023-12-20T06:56:29;52305.75;;;-145.69;64.10
1726;BME280;41776;48.260;8.928;2023-12-20T06:58:55;52299.81;;;-145.69;64.61
1726;BME280;41776;48.260;8.928;2023-12-20T07:01:22;52272.09;;;-145.69;64.16
1726;BME280;41776;48.260;8.928;2023-12-20T07:03:49;52301.81;;;-145.69;63.96
1726;BME280;41776;48.260;8.928;2023-12-20T07:06:15;52297.84;;;-145.69;64.44
1726;BME280;41776;48.260;8.928;2023-12-20T07:08:42;52327.53;;;-145.69;63.96
1726;BME280;41776;48.260;8.928;2023-12-20T07:11:09;52329.53;;;-145.69;64.24
1726;BME280;41776;48.260;8.928;2023-12-20T07:13:37;52297.84;;;-145.69;63.90
1726;BME280;41776;48.260;8.928;2023-12-20T07:16:04;52307.75;;;-145.69;63.89
1726;BME280;41776;48.260;8.928;2023-12-20T07:18:30;52254.28;;;-145.69;64.27
1726;BME280;41776;48.260;8.928;2023-12-20T07:20:57;52317.66;;;-145.69;64.01
1726;BME280;41776;48.260;8.928;2023-12-20T07:23:24;52297.84;;;-145.69;63.86
1726;BME280;41776;48.260;8.928;2023-12-20T07:25:51;52282.00;;;-145.69;63.87
1726;BME280;41776;48.260;8.928;2023-12-20T07:28:18;52278.03;;;-145.69;64.39
1726;BME280;41776;48.260;8.928;2023-12-20T07:30:46;52337.44;;;-145.69;63.80
1726;BME280;41776;48.260;8.928;2023-12-20T07:33:12;52289.91;;;-145.69;63.95
1726;BME280;41776;48.260;8.928;2023-12-20T07:35:39;52309.72;;;-145.69;63.87
1726;BME280;41776;48.260;8.928;2023-12-20T07:38:06;52285.97;;;-145.69;63.99
1726;BME280;41776;48.260;8.928;2023-12-20T07:40:32;52305.75;;;-145.69;64.06
1726;BME280;41776;48.260;8.928;2023-12-20T07:42:59;52307.75;;;-145.69;63.84
1726;BME280;41776;48.260;8.928;2023-12-20T07:45:26;52335.47;;;-145.69;64.02
1726;BME280;41776;48.260;8.928;2023-12-20T07:47:54;52291.91;;;-145.69;63.84
1726;BME280;41776;48.260;8.928;2023-12-20T07:50:23;52272.09;;;-145.69;63.99
1726;BME280;41776;48.260;8.928;2023-12-20T07:52:51;52313.69;;;-145.69;63.34
1726;BME280;41776;48.260;8.928;2023-12-20T07:55:18;52289.91;;;-145.69;63.99
1726;BME280;41776;48.260;8.928;2023-12-20T07:57:45;52297.84;;;-145.69;63.72
1726;BME280;41776;48.260;8.928;2023-12-20T08:00:12;52287.94;;;-145.69;63.96
1726;BME280;41776;48.260;8.928;2023-12-20T08:02:39;52313.69;;;-145.69;62.63
1726;BME280;41776;48.260;8.928;2023-12-20T08:05:07;52297.84;;;-145.69;63.46
1726;BME280;41776;48.260;8.928;2023-12-20T08:07:34;52307.75;;;-145.69;63.43
1726;BME280;41776;48.260;8.928;2023-12-20T08:10:01;52270.13;;;-145.69;63.98
1726;BME280;41776;48.260;8.928;2023-12-20T08:12:27;52313.69;;;-145.69;64.37
1726;BME280;41776;48.260;8.928;2023-12-20T08:14:54;52303.78;;;-145.69;63.83
1726;BME280;41776;48.260;8.928;2023-12-20T08:17:20;52309.72;;;-145.69;64.01
1726;BME280;41776;48.260;8.928;2023-12-20T08:19:48;52262.19;;;-145.69;64.10
1726;BME280;41776;48.260;8.928;2023-12-20T08:22:16;52278.03;;;-145.69;64.32
1726;BME280;41776;48.260;8.928;2023-12-20T08:24:43;52285.97;;;-145.69;64.74
1726;BME280;41776;48.260;8.928;2023-12-20T08:27:09;52299.81;;;-145.69;64.40
1726;BME280;41776;48.260;8.928;2023-12-20T08:29:36;52309.72;;;-145.69;64.02
1726;BME280;41776;48.260;8.928;2023-12-20T08:32:03;52287.94;;;-145.69;64.39
1726;BME280;41776;48.260;8.928;2023-12-20T08:34:30;52297.84;;;-145.69;64.56
1726;BME280;41776;48.260;8.928;2023-12-20T08:36:56;52311.69;;;-145.69;64.69
1726;BME280;41776;48.260;8.928;2023-12-20T08:39:24;52282.00;;;-145.69;64.56
1726;BME280;41776;48.260;8.928;2023-12-20T08:41:51;52309.72;;;-145.69;64.83
1726;BME280;41776;48.260;8.928;2023-12-20T08:44:17;52305.75;;;-145.69;64.54
1726;BME280;41776;48.260;8.928;2023-12-20T08:46:44;52293.88;;;-145.69;65.23
1726;BME280;41776;48.260;8.928;2023-12-20T08:49:12;52309.72;;;-145.69;64.99
1726;BME280;41776;48.260;8.928;2023-12-20T08:51:39;52282.00;;;-145.69;65.20
1726;BME280;41776;48.260;8.928;2023-12-20T08:54:09;52299.81;;;-145.69;65.50
1726;BME280;41776;48.260;8.928;2023-12-20T08:56:37;52278.03;;;-145.69;64.80
1726;BME280;41776;48.260;8.928;2023-12-20T08:59:06;52293.88;;;-145.69;65.23
1726;BME280;41776;48.260;8.928;2023-12-20T09:01:33;52272.09;;;-145.69;64.48
1726;BME280;41776;48.260;8.928;2023-12-20T09:03:59;52309.72;;;-145.69;64.51
1726;BME280;41776;48.260;8.928;2023-12-20T09:06:29;52280.00;;;-145.69;64.59
1726;BME280;41776;48.260;8.928;2023-12-20T09:08:55;52266.16;;;-145.69;64.31
1726;BME280;41776;48.260;8.928;2023-12-20T09:11:22;52301.81;;;-145.69;64.26
1726;BME280;41776;48.260;8.928;2023-12-20T09:13:51;52331.50;;;-145.69;65.47
1726;BME280;41776;48.260;8.928;2023-12-20T09:16:17;52309.72;;;-145.69;65.47
1726;BME280;41776;48.260;8.928;2023-12-20T09:18:44;52280.00;;;-145.69;64.91
1726;BME280;41776;48.260;8.928;2023-12-20T09:21:11;52305.75;;;-145.69;65.16
1726;BME280;41776;48.260;8.928;2023-12-20T09:23:39;52325.56;;;-145.69;65.11
1726;BME280;41776;48.260;8.928;2023-12-20T09:26:06;52305.75;;;-145.69;64.65
1726;BME280;41776;48.260;8.928;2023-12-20T09:28:32;52319.63;;;-145.69;64.85
1726;BME280;41776;48.260;8.928;2023-12-20T09:31:04;52289.91;;;-145.69;64.84
1726;BME280;41776;48.260;8.928;2023-12-20T09:33:30;52305.75;;;-145.69;64.74
1726;BME280;41776;48.260;8.928;2023-12-20T09:35:57;52283.97;;;-145.69;65.82
1726;BME280;41776;48.260;8.928;2023-12-20T09:38:24;52293.88;;;-145.69;66.25
1726;BME280;41776;48.260;8.928;2023-12-20T09:40:50;52282.00;;;-145.69;66.35
1726;BME280;41776;48.260;8.928;2023-12-20T09:43:19;52307.75;;;-145.69;67.28
1726;BME280;41776;48.260;8.928;2023-12-20T09:45:47;52285.97;;;-145.69;68.34
1726;BME280;41776;48.260;8.928;2023-12-20T09:48:17;52337.44;;;-145.69;68.73
1726;BME280;41776;48.260;8.928;2023-12-20T09:50:44;52333.47;;;-145.69;68.24
1726;BME280;41776;48.260;8.928;2023-12-20T09:53:15;52321.59;;;-145.69;68.54
1726;BME280;41776;48.260;8.928;2023-12-20T09:55:42;52287.94;;;-145.69;68.89
1726;BME280;41776;48.260;8.928;2023-12-20T09:58:08;52291.91;;;-145.69;69.30
1726;BME280;41776;48.260;8.928;2023-12-20T10:00:35;52327.53;;;-145.69;68.57
1726;BME280;41776;48.260;8.928;2023-12-20T10:03:03;52291.91;;;-145.69;68.55
1726;BME280;41776;48.260;8.928;2023-12-20T10:05:34;52313.69;;;-145.69;68.15
1726;BME280;41776;48.260;8.928;2023-12-20T10:08:01;52325.56;;;-145.69;68.02
1726;BME280;41776;48.260;8.928;2023-12-20T10:10:28;52339.44;;;-145.69;68.12
1726;BME280;41776;48.260;8.928;2023-12-20T10:13:02;52297.84;;;-145.69;67.48
1726;BME280;41776;48.260;8.928;2023-12-20T10:15:36;52291.91;;;-145.69;67.90
1726;BME280;41776;48.260;8.928;2023-12-20T10:18:04;52299.81;;;-145.69;67.72
1726;BME280;41776;48.260;8.928;2023-12-20T10:20:33;52291.91;;;-145.69;67.55
1726;BME280;41776;48.260;8.928;2023-12-20T10:23:00;52301.81;;;-145.69;67.99
1726;BME280;41776;48.260;8.928;2023-12-20T10:25:27;52278.03;;;-145.69;67.80
1726;BME280;41776;48.260;8.928;2023-12-20T10:28:09;52285.97;;;-145.69;67.46
1726;BME280;41776;48.260;8.928;2023-12-20T10:30:35;52309.72;;;-145.69;67.00
1726;BME280;41776;48.260;8.928;2023-12-20T10:33:02;52287.94;;;-145.69;66.88
1726;BME280;41776;48.260;8.928;2023-12-20T10:35:29;52305.75;;;-145.69;66.35
1726;BME280;41776;48.260;8.928;2023-12-20T10:37:58;52289.91;;;-145.69;66.46
1726;BME280;41776;48.260;8.928;2023-12-20T10:40:29;52301.81;;;-145.69;66.85
1726;BME280;41776;48.260;8.928;2023-12-20T10:42:57;52311.69;;;-145.69;65.83
1726;BME280;41776;48.260;8.928;2023-12-20T10:45:24;52319.63;;;-145.69;66.93
1726;BME280;41776;48.260;8.928;2023-12-20T10:47:51;52321.59;;;-145.69;67.18
1726;BME280;41776;48.260;8.928;2023-12-20T10:50:19;52321.59;;;-145.69;67.00
1726;BME280;41776;48.260;8.928;2023-12-20T10:52:49;52317.66;;;-145.69;67.18
1726;BME280;41776;48.260;8.928;2023-12-20T10:55:22;52357.25;;;-145.69;66.38
1726;BME280;41776;48.260;8.928;2023-12-20T10:57:49;52323.59;;;-145.69;66.42
1726;BME280;41776;48.260;8.928;2023-12-20T11:00:18;52353.28;;;-145.69;66.05
1726;BME280;41776;48.260;8.928;2023-12-20T11:02:45;52345.38;;;-145.69;67.10
1726;BME280;41776;48.260;8.928;2023-12-20T11:05:19;52278.03;;;-145.69;67.11
1726;BME280;41776;48.260;8.928;2023-12-20T11:07:52;52309.72;;;-145.69;66.52
1726;BME280;41776;48.260;8.928;2023-12-20T11:10:28;52331.50;;;-145.69;66.26
1726;BME280;41776;48.260;8.928;2023-12-20T11:13:00;52301.81;;;-145.69;65.93
1726;BME280;41776;48.260;8.928;2023-12-20T11:15:28;52315.66;;;-145.69;65.86
1726;BME280;41776;48.260;8.928;2023-12-20T11:17:55;52323.59;;;-145.69;64.68
1726;BME280;41776;48.260;8.928;2023-12-20T11:20:23;52299.81;;;-145.69;64.53
1726;BME280;41776;48.260;8.928;2023-12-20T11:22:53;52323.59;;;-145.69;64.02
1726;BME280;41776;48.260;8.928;2023-12-20T11:25:20;52303.78;;;-145.69;63.98
1726;BME280;41776;48.260;8.928;2023-12-20T11:28:07;52309.72;;;-145.69;63.36
1726;BME280;41776;48.260;8.928;2023-12-20T11:30:40;52329.53;;;-145.69;64.44
1726;BME280;41776;48.260;8.928;2023-12-20T11:33:07;52333.47;;;-145.69;64.29
1726;BME280;41776;48.260;8.928;2023-12-20T11:35:34;52343.38;;;-145.69;65.11
1726;BME280;41776;48.260;8.928;2023-12-20T11:38:02;52329.53;;;-145.69;65.92
1726;BME280;41776;48.260;8.928;2023-12-20T11:40:33;52262.19;;;-145.69;65.56
1726;BME280;41776;48.260;8.928;2023-12-20T11:43:05;52297.84;;;-145.69;64.46
1726;BME280;41776;48.260;8.928;2023-12-20T11:45:32;52311.69;;;-145.69;64.83
1726;BME280;41776;48.260;8.928;2023-12-20T11:48:02;52309.72;;;-145.69;64.37
1726;BME280;41776;48.260;8.928;2023-12-20T11:50:29;52317.66;;;-145.69;64.04
1726;BME280;41776;48.260;8.928;2023-12-20T11:52:56;52309.72;;;-145.69;63.94
1726;BME280;41776;48.260;8.928;2023-12-20T11:55:23;52309.72;;;-145.69;63.61
1726;BME280;41776;48.260;8.928;2023-12-20T11:57:50;52349.31;;;-145.69;64.19
1726;BME280;41776;48.260;8.928;2023-12-20T12:00:18;52345.38;;;-145.69;63.65
1726;BME280;41776;48.260;8.928;2023-12-20T12:02:55;52315.66;;;-145.69;63.36
1726;BME280;41776;48.260;8.928;2023-12-20T12:05:21;52317.66;;;-145.69;63.59
1726;BME280;41776;48.260;8.928;2023-12-20T12:07:48;52305.75;;;-145.69;63.34
1726;BME280;41776;48.260;8.928;2023-12-20T12:10:14;52299.81;;;-145.69;62.71
1726;BME280;41776;48.260;8.928;2023-12-20T12:12:41;52321.59;;;-145.69;61.81
1726;BME280;41776;48.260;8.928;2023-12-20T12:15:08;52274.06;;;-145.69;61.12
1726;BME280;41776;48.260;8.928;2023-12-20T12:17:40;52307.75;;;-145.69;60.66
1726;BME280;41776;48.260;8.928;2023-12-20T12:20:08;52339.44;;;-145.69;60.73
1726;BME280;41776;48.260;8.928;2023-12-20T12:22:35;52309.72;;;-145.69;60.36
1726;BME280;41776;48.260;8.928;2023-12-20T12:25:09;52321.59;;;-145.69;57.91
1726;BME280;41776;48.260;8.928;2023-12-20T12:27:39;52321.59;;;-145.69;57.48
1726;BME280;41776;48.260;8.928;2023-12-20T12:30:07;52285.97;;;-145.69;55.54
1726;BME280;41776;48.260;8.928;2023-12-20T12:32:35;52303.78;;;-145.69;56.16
1726;BME280;41776;48.260;8.928;2023-12-20T12:35:04;52289.91;;;-145.69;55.04
1726;BME280;41776;48.260;8.928;2023-12-20T12:37:38;52307.75;;;-145.69;55.52
1726;BME280;41776;48.260;8.928;2023-12-20T12:40:05;52341.41;;;-145.69;54.29
1726;BME280;41776;48.260;8.928;2023-12-20T12:42:32;52313.69;;;-145.69;54.03
1726;BME280;41776;48.260;8.928;2023-12-20T12:44:59;52341.41;;;-145.69;54.48
1726;BME280;41776;48.260;8.928;2023-12-20T12:47:28;52280.00;;;-145.69;53.99
1726;BME280;41776;48.260;8.928;2023-12-20T12:49:57;52293.88;;;-145.69;54.33
1726;BME280;41776;48.260;8.928;2023-12-20T12:52:34;52311.69;;;-145.69;54.03